Time;durP1;ratioP1;P1;durP2;ratioP2;P2;SDS_P1;SDS_P2;PMS_P1;PMS_P2;Temp;Humidity;BMP_temperature;BMP_pressure;BME280_temperature;BME280_humidity;BME280_pressure;Samples;Min_cycle;Max_cycle;Signal;HPM_P1;HPM_P2
2024/01/02 00:01:53;;;;;;;;;;;;;;;11.65;51.85;99993.72;4919970;28;111181;-65
2024/01/02 00:04:20;;;;;;;;;;;;;;;11.63;51.73;99987.81;4934820;28;100074;-63
2024/01/02 00:06:49;;;;;;;;;;;;;;;11.62;51.84;99991.56;4923166;28;98570;-65
2024/01/02 00:09:15;;;;;;;;;;;;;;;11.61;51.71;99981.88;4936053;28;98821;-63
2024/01/02 00:11:42;;;;;;;;;;;;;;;11.59;51.95;99978.63;4921123;28;98059;-63
2024/01/02 00:14:08;;;;;;;;;;;;;;;11.59;51.81;99985.94;4922117;28;99700;-64
2024/01/02 00:16:34;;;;;;;;;;;;;;;11.57;51.84;99986.22;4925036;28;119326;-63
2024/01/02 00:19:00;;;;;;;;;;;;;;;11.55;51.78;99986.53;4942064;28;98164;-63
2024/01/02 00:21:26;;;;;;;;;;;;;;;11.54;51.84;99987.59;4938004;28;100437;-65
2024/01/02 00:23:52;;;;;;;;;;;;;;;11.52;51.76;99984.41;4933017;28;127955;-65
2024/01/02 00:26:18;;;;;;;;;;;;;;;11.53;51.72;99987.91;4925717;28;98046;-64
2024/01/02 00:28:45;;;;;;;;;;;;;;;11.52;51.81;99995.19;4955011;28;119209;-63
2024/01/02 00:31:12;;;;;;;;;;;;;;;11.50;51.78;99988.47;4922671;28;98151;-63
2024/01/02 00:33:39;;;;;;;;;;;;;;;11.48;51.87;99983.34;4922376;28;98717;-63
2024/01/02 00:36:09;;;;;;;;;;;;;;;11.47;51.80;99981.72;4926426;28;99183;-65
2024/01/02 00:38:35;;;;;;;;;;;;;;;11.47;51.84;99980.91;4940084;28;99323;-63
2024/01/02 00:41:02;;;;;;;;;;;;;;;11.45;51.82;99975.03;4923551;28;98381;-63
2024/01/02 00:43:28;;;;;;;;;;;;;;;11.44;51.81;99974.22;4927753;28;99677;-63
2024/01/02 00:45:56;;;;;;;;;;;;;;;11.44;51.76;99970.72;4924037;28;99306;-65
2024/01/02 00:48:22;;;;;;;;;;;;;;;11.43;51.81;99966.38;4937393;28;98111;-66
2024/01/02 00:50:48;;;;;;;;;;;;;;;11.42;51.88;99962.09;4937440;28;110629;-65
2024/01/02 00:53:14;;;;;;;;;;;;;;;11.41;51.98;99968.59;4937207;28;121212;-63
2024/01/02 00:55:43;;;;;;;;;;;;;;;11.40;51.84;99961.59;4939722;28;99791;-63
2024/01/02 00:58:09;;;;;;;;;;;;;;;11.40;51.77;99956.19;4922989;28;98069;-65
2024/01/02 01:00:35;;;;;;;;;;;;;;;11.38;51.88;99961.84;4923106;28;97897;-65
2024/01/02 01:03:01;;;;;;;;;;;;;;;11.37;51.66;99960.25;4957665;28;103202;-65
2024/01/02 01:05:26;;;;;;;;;;;;;;;11.38;51.69;99966.44;4925187;28;98381;-65
2024/01/02 01:07:52;;;;;;;;;;;;;;;11.34;51.75;99958.13;4937880;28;115679;-66
2024/01/02 01:10:18;;;;;;;;;;;;;;;11.34;51.69;99958.13;4924457;28;98302;-65
2024/01/02 01:12:45;;;;;;;;;;;;;;;11.33;51.61;99961.09;4923248;28;127942;-65
2024/01/02 01:15:11;;;;;;;;;;;;;;;11.33;51.77;99963.81;4953066;28;99549;-65
2024/01/02 01:17:39;;;;;;;;;;;;;;;11.31;51.76;99961.38;4926735;28;98604;-65
2024/01/02 01:20:05;;;;;;;;;;;;;;;11.32;51.75;99963.00;4923676;28;99204;-65
2024/01/02 01:22:31;;;;;;;;;;;;;;;11.31;51.65;99966.78;4940930;28;100046;-63
2024/01/02 01:24:58;;;;;;;;;;;;;;;11.30;51.69;99957.06;4922821;28;98101;-65
2024/01/02 01:27:24;;;;;;;;;;;;;;;11.29;51.86;99961.66;4939717;28;103345;-65
2024/01/02 01:29:49;;;;;;;;;;;;;;;11.28;51.70;99961.97;4935727;28;104479;-63
2024/01/02 01:32:15;;;;;;;;;;;;;;;11.28;51.68;99959.28;4939913;28;98241;-63
2024/01/02 01:34:42;;;;;;;;;;;;;;;11.27;51.82;99953.03;4937788;28;97934;-65
2024/01/02 01:37:08;;;;;;;;;;;;;;;11.26;51.83;99954.13;4926861;28;98824;-64
2024/01/02 01:39:34;;;;;;;;;;;;;;;11.26;51.56;99956.84;4922304;28;109647;-65
2024/01/02 01:42:00;;;;;;;;;;;;;;;11.25;51.79;99952.53;4924038;28;99771;-63
2024/01/02 01:44:26;;;;;;;;;;;;;;;11.24;51.73;99942.84;4923798;28;99251;-65
2024/01/02 01:46:51;;;;;;;;;;;;;;;11.24;51.75;99936.66;4924031;28;98081;-65
2024/01/02 01:49:18;;;;;;;;;;;;;;;11.23;51.83;99943.09;4922305;28;127810;-63
2024/01/02 01:51:44;;;;;;;;;;;;;;;11.22;51.78;99936.91;4924314;28;99008;-63
2024/01/02 01:54:12;;;;;;;;;;;;;;;11.23;51.71;99938.50;4933923;28;124927;-65
2024/01/02 01:56:39;;;;;;;;;;;;;;;11.22;51.83;99936.09;4939125;28;98296;-63
2024/01/02 01:59:05;;;;;;;;;;;;;;;11.21;51.78;99937.19;4923345;28;98462;-63
2024/01/02 02:01:31;;;;;;;;;;;;;;;11.20;51.72;99936.41;4922624;28;98535;-65
2024/01/02 02:03:58;;;;;;;;;;;;;;;11.18;51.78;99933.16;4937772;28;98706;-63
2024/01/02 02:06:24;;;;;;;;;;;;;;;11.18;51.68;99929.66;4924339;28;98423;-63
2024/01/02 02:08:51;;;;;;;;;;;;;;;11.17;51.63;99931.56;4937964;28;101218;-63
2024/01/02 02:11:17;;;;;;;;;;;;;;;11.17;51.87;99928.06;4919044;28;99896;-63
2024/01/02 02:13:43;;;;;;;;;;;;;;;11.16;51.90;99929.97;4936309;28;99912;-64
2024/01/02 02:16:09;;;;;;;;;;;;;;;11.16;51.81;99929.13;4918051;28;98079;-63
2024/01/02 02:18:36;;;;;;;;;;;;;;;11.14;51.91;99926.72;4937170;28;98074;-63
2024/01/02 02:21:03;;;;;;;;;;;;;;;11.15;51.72;99930.22;4933348;28;98894;-63
2024/01/02 02:23:29;;;;;;;;;;;;;;;11.13;51.71;99930.53;4939398;28;98178;-63
2024/01/02 02:25:55;;;;;;;;;;;;;;;11.12;51.68;99920.84;4932394;28;99731;-65
2024/01/02 02:28:21;;;;;;;;;;;;;;;11.11;51.78;99916.50;4931025;28;127903;-65
2024/01/02 02:30:47;;;;;;;;;;;;;;;11.11;51.60;99921.09;4937129;28;98743;-65
2024/01/02 02:33:13;;;;;;;;;;;;;;;11.08;51.89;99917.06;4920503;28;99016;-65
2024/01/02 02:35:39;;;;;;;;;;;;;;;11.09;51.79;99916.00;4920613;28;98360;-65
2024/01/02 02:38:05;;;;;;;;;;;;;;;11.07;51.62;99910.06;4920216;28;111953;-65
2024/01/02 02:40:32;;;;;;;;;;;;;;;11.06;51.92;99909.28;4923475;28;99565;-63
2024/01/02 02:42:58;;;;;;;;;;;;;;;11.06;51.98;99900.38;4920111;28;106951;-63
2024/01/02 02:45:24;;;;;;;;;;;;;;;11.05;51.64;99896.88;4918397;28;98266;-63
2024/01/02 02:47:51;;;;;;;;;;;;;;;11.05;51.69;99898.78;4921809;28;98428;-63
2024/01/02 02:50:17;;;;;;;;;;;;;;;11.03;51.92;99888.25;4921588;28;99303;-63
2024/01/02 02:52:43;;;;;;;;;;;;;;;11.03;51.68;99896.34;4940077;28;98288;-65
2024/01/02 02:55:09;;;;;;;;;;;;;;;11.02;51.92;99891.25;4931997;28;105243;-63
2024/01/02 02:57:35;;;;;;;;;;;;;;;11.01;51.82;99887.75;4938413;28;98339;-65
2024/01/02 03:00:03;;;;;;;;;;;;;;;11.02;51.92;99891.25;4939387;28;106333;-63
2024/01/02 03:02:30;;;;;;;;;;;;;;;11.01;51.94;99892.34;4935119;28;98142;-63
2024/01/02 03:04:56;;;;;;;;;;;;;;;11.00;51.76;99885.31;4939539;28;102759;-63
2024/01/02 03:07:22;;;;;;;;;;;;;;;10.98;51.62;99880.22;4954278;28;98548;-65
2024/01/02 03:09:48;;;;;;;;;;;;;;;10.98;51.90;99877.53;4923020;28;98204;-65
2024/01/02 03:12:14;;;;;;;;;;;;;;;10.98;51.77;99874.81;4920412;28;101393;-65
2024/01/02 03:14:40;;;;;;;;;;;;;;;10.98;51.54;99874.81;4938174;28;98207;-63
2024/01/02 03:17:06;;;;;;;;;;;;;;;10.97;51.84;99875.91;4918917;28;98334;-63
2024/01/02 03:19:35;;;;;;;;;;;;;;;10.97;51.87;99872.44;4938834;28;117142;-63
2024/01/02 03:22:01;;;;;;;;;;;;;;;10.96;51.87;99860.81;4937105;28;111762;-63
2024/01/02 03:24:28;;;;;;;;;;;;;;;10.96;51.90;99857.31;4936012;28;98195;-63
2024/01/02 03:26:53;;;;;;;;;;;;;;;10.97;51.76;99861.63;4921668;28;98258;-63
2024/01/02 03:29:21;;;;;;;;;;;;;;;10.97;51.67;99846.25;4922407;28;100580;-65
2024/01/02 03:31:47;;;;;;;;;;;;;;;10.96;51.73;99843.81;4919905;28;98077;-65
2024/01/02 03:34:13;;;;;;;;;;;;;;;10.97;51.78;99837.38;4921522;28;114235;-63
2024/01/02 03:36:39;;;;;;;;;;;;;;;10.96;51.95;99828.44;4923153;28;100083;-65
2024/01/02 03:39:05;;;;;;;;;;;;;;;10.97;51.81;99826.59;4949870;28;127734;-63
2024/01/02 03:41:31;;;;;;;;;;;;;;;10.95;51.77;99816.06;4919376;28;98103;-65
2024/01/02 03:43:57;;;;;;;;;;;;;;;10.94;51.88;99809.06;4937718;28;98060;-65
2024/01/02 03:46:24;;;;;;;;;;;;;;;10.94;51.48;99805.56;4935633;28;98299;-63
2024/01/02 03:48:50;;;;;;;;;;;;;;;10.94;51.83;99797.47;4920370;28;99466;-63
2024/01/02 03:51:16;;;;;;;;;;;;;;;10.93;51.66;99793.97;4924193;28;99378;-65
2024/01/02 03:53:42;;;;;;;;;;;;;;;10.93;51.70;99787.78;4921100;28;102010;-65
2024/01/02 03:56:09;;;;;;;;;;;;;;;10.92;51.58;99781.56;4932580;28;107203;-63
2024/01/02 03:58:36;;;;;;;;;;;;;;;10.92;51.98;99780.78;4937606;28;98301;-65
2024/01/02 04:01:02;;;;;;;;;;;;;;;10.91;51.67;99781.88;4925883;28;98292;-65
2024/01/02 04:03:28;;;;;;;;;;;;;;;10.91;51.52;99773.78;4939925;28;98076;-65
2024/01/02 04:05:54;;;;;;;;;;;;;;;10.90;51.67;99761.38;4941164;28;98336;-65
2024/01/02 04:08:19;;;;;;;;;;;;;;;10.92;51.84;99767.28;4936258;28;126388;-65
2024/01/02 04:10:45;;;;;;;;;;;;;;;10.91;51.89;99765.69;4921617;28;126695;-63
2024/01/02 04:13:12;;;;;;;;;;;;;;;10.91;51.45;99761.09;4921677;28;98193;-65
2024/01/02 04:15:38;;;;;;;;;;;;;;;10.91;51.68;99752.22;4927036;28;99518;-63
2024/01/02 04:18:05;;;;;;;;;;;;;;;10.90;51.49;99753.31;4940234;28;98186;-63
2024/01/02 04:20:31;;;;;;;;;;;;;;;10.91;51.63;99741.41;4936743;27;99731;-65
2024/01/02 04:22:58;;;;;;;;;;;;;;;10.90;51.53;99737.94;4925392;28;108907;-63
2024/01/02 04:25:27;;;;;;;;;;;;;;;10.90;51.81;99737.13;4925158;28;98300;-65
2024/01/02 04:27:54;;;;;;;;;;;;;;;10.89;51.45;99730.13;4942061;28;98698;-65
2024/01/02 04:30:20;;;;;;;;;;;;;;;10.89;51.86;99725.53;4939889;28;98878;-66
2024/01/02 04:32:47;;;;;;;;;;;;;;;10.90;51.47;99723.66;4939070;28;111830;-63
2024/01/02 04:35:16;;;;;;;;;;;;;;;10.89;51.72;99708.56;4942065;28;104403;-63
2024/01/02 04:37:43;;;;;;;;;;;;;;;10.89;51.58;99709.38;4936243;28;98987;-63
2024/01/02 04:40:10;;;;;;;;;;;;;;;10.90;51.81;99712.84;4938688;28;98292;-65
2024/01/02 04:42:37;;;;;;;;;;;;;;;10.89;51.73;99709.38;4937758;28;107076;-65
2024/01/02 04:45:03;;;;;;;;;;;;;;;10.91;51.56;99706.38;4938477;27;99468;-65
2024/01/02 04:47:29;;;;;;;;;;;;;;;10.90;51.68;99710.16;4922757;28;110230;-65
2024/01/02 04:49:56;;;;;;;;;;;;;;;10.91;51.83;99703.66;4923489;28;99430;-63
2024/01/02 04:52:22;;;;;;;;;;;;;;;10.91;51.76;99701.78;4941402;28;99422;-65
2024/01/02 04:54:48;;;;;;;;;;;;;;;10.91;51.68;99700.97;4940674;28;98562;-65
2024/01/02 04:57:15;;;;;;;;;;;;;;;10.92;51.74;99702.56;4956026;28;98705;-63
2024/01/02 04:59:41;;;;;;;;;;;;;;;10.91;51.56;99698.28;4925115;28;99720;-63
2024/01/02 05:02:08;;;;;;;;;;;;;;;10.92;51.80;99697.19;4933716;28;98140;-63
2024/01/02 05:04:34;;;;;;;;;;;;;;;10.91;51.54;99691.00;4954701;28;98223;-63
2024/01/02 05:07:00;;;;;;;;;;;;;;;10.92;51.66;99683.69;4956072;28;98371;-63
2024/01/02 05:09:27;;;;;;;;;;;;;;;10.92;51.44;99686.41;4939468;28;98288;-65
2024/01/02 05:11:53;;;;;;;;;;;;;;;10.91;51.66;99680.19;4925068;28;101746;-65
2024/01/02 05:14:19;;;;;;;;;;;;;;;10.90;51.77;99665.13;4921896;28;105885;-65
2024/01/02 05:16:45;;;;;;;;;;;;;;;10.91;51.56;99661.31;4923154;28;100089;-65
2024/01/02 05:19:11;;;;;;;;;;;;;;;10.91;51.73;99663.22;4925941;28;103573;-65
2024/01/02 05:21:37;;;;;;;;;;;;;;;10.90;51.69;99648.94;4940970;28;98727;-63
2024/01/02 05:24:04;;;;;;;;;;;;;;;10.90;51.38;99654.34;4936656;28;98727;-63
2024/01/02 05:26:30;;;;;;;;;;;;;;;10.91;51.69;99650.53;4936025;28;98377;-65
2024/01/02 05:28:56;;;;;;;;;;;;;;;10.91;51.39;99647.03;4940418;28;116690;-63
2024/01/02 05:31:22;;;;;;;;;;;;;;;10.92;51.50;99645.94;4919791;28;117079;-63
2024/01/02 05:33:48;;;;;;;;;;;;;;;10.91;51.79;99647.84;4918984;28;99147;-63
2024/01/02 05:36:14;;;;;;;;;;;;;;;10.90;51.64;99651.66;4935623;28;128098;-63
2024/01/02 05:38:40;;;;;;;;;;;;;;;10.91;51.79;99639.75;4940065;28;98359;-63
2024/01/02 05:41:07;;;;;;;;;;;;;;;10.92;51.55;99635.97;4921432;28;109364;-65
2024/01/02 05:43:34;;;;;;;;;;;;;;;10.93;51.55;99634.91;4935333;28;98429;-65
2024/01/02 05:46:00;;;;;;;;;;;;;;;10.92;51.50;99621.69;4938443;28;114343;-63
2024/01/02 05:48:25;;;;;;;;;;;;;;;10.92;51.60;99617.09;4952386;28;98839;-65
2024/01/02 05:50:52;;;;;;;;;;;;;;;10.92;51.43;99605.50;4919004;28;98429;-63
2024/01/02 05:53:19;;;;;;;;;;;;;;;10.93;51.52;99596.34;4925390;28;99499;-63
2024/01/02 05:55:44;;;;;;;;;;;;;;;10.94;51.52;99603.34;4919443;28;99457;-67
2024/01/02 05:58:10;;;;;;;;;;;;;;;10.93;51.78;99593.66;4919922;28;127773;-65
2024/01/02 06:00:37;;;;;;;;;;;;;;;10.94;51.50;99595.25;4923316;28;98421;-63
2024/01/02 06:03:03;;;;;;;;;;;;;;;10.94;51.67;99590.66;4919003;28;99802;-64
2024/01/02 06:05:29;;;;;;;;;;;;;;;10.94;51.51;99579.88;4933843;28;99375;-65
2024/01/02 06:07:55;;;;;;;;;;;;;;;10.93;51.82;99575.56;4919424;28;105412;-64
2024/01/02 06:10:21;;;;;;;;;;;;;;;10.94;51.85;99574.47;4937603;28;98441;-65
2024/01/02 06:12:47;;;;;;;;;;;;;;;10.94;51.48;99566.38;4925629;28;99813;-65
2024/01/02 06:15:14;;;;;;;;;;;;;;;10.95;51.64;99565.28;4921958;28;98246;-65
2024/01/02 06:17:43;;;;;;;;;;;;;;;10.96;51.71;99561.50;4941603;28;98467;-65
2024/01/02 06:20:10;;;;;;;;;;;;;;;10.97;51.62;99560.41;4941338;28;108537;-63
2024/01/02 06:22:37;;;;;;;;;;;;;;;10.98;51.72;99553.91;4938146;28;97916;-65
2024/01/02 06:25:09;;;;;;;;;;;;;;;10.98;51.49;99555.81;4936105;28;98261;-65
2024/01/02 06:27:35;;;;;;;;;;;;;;;10.98;51.42;99550.44;4937443;28;98368;-65
2024/01/02 06:30:03;;;;;;;;;;;;;;;10.98;51.54;99543.13;4921437;28;99244;-63
2024/01/02 06:32:31;;;;;;;;;;;;;;;10.98;51.42;99537.75;4921326;28;98233;-63
2024/01/02 06:34:57;;;;;;;;;;;;;;;10.97;51.75;99533.44;4920761;28;99489;-63
2024/01/02 06:37:24;;;;;;;;;;;;;;;10.99;51.38;99535.84;4921031;28;99643;-63
2024/01/02 06:39:50;;;;;;;;;;;;;;;10.98;51.48;99532.34;4955222;28;98248;-65
2024/01/02 06:42:16;;;;;;;;;;;;;;;10.99;51.63;99531.25;4934723;28;98543;-66
2024/01/02 06:44:43;;;;;;;;;;;;;;;10.99;51.80;99528.56;4938183;28;99311;-63
2024/01/02 06:47:09;;;;;;;;;;;;;;;11.00;51.53;99532.03;4920375;28;97929;-66
2024/01/02 06:49:35;;;;;;;;;;;;;;;11.00;51.47;99523.97;4934613;28;99557;-65
2024/01/02 06:52:01;;;;;;;;;;;;;;;11.00;51.76;99532.88;4937123;28;100457;-64
2024/01/02 06:54:27;;;;;;;;;;;;;;;11.01;51.64;99533.66;4919083;28;98338;-63
2024/01/02 06:56:53;;;;;;;;;;;;;;;11.02;51.42;99521.78;4916903;28;125769;-63
2024/01/02 06:59:19;;;;;;;;;;;;;;;11.02;51.47;99522.59;4935104;28;97948;-65
2024/01/02 07:01:46;;;;;;;;;;;;;;;11.05;51.48;99521.19;4932408;28;103367;-65
2024/01/02 07:04:12;;;;;;;;;;;;;;;11.05;51.57;99513.13;4917505;28;98617;-65
2024/01/02 07:06:38;;;;;;;;;;;;;;;11.06;51.25;99506.63;4918470;28;99623;-63
2024/01/02 07:09:04;;;;;;;;;;;;;;;11.06;51.42;99504.72;4920480;28;104963;-63
2024/01/02 07:11:30;;;;;;;;;;;;;;;11.06;51.43;99507.41;4916539;28;98627;-63
2024/01/02 07:13:57;;;;;;;;;;;;;;;11.04;51.60;99492.63;4933138;28;98999;-65
2024/01/02 07:16:23;;;;;;;;;;;;;;;11.03;51.42;99493.72;4935308;28;98280;-63
2024/01/02 07:18:50;;;;;;;;;;;;;;;11.02;51.52;99498.31;4929886;28;98287;-65
2024/01/02 07:21:16;;;;;;;;;;;;;;;11.00;51.73;99489.72;4935358;28;98425;-63
2024/01/02 07:23:42;;;;;;;;;;;;;;;11.00;51.53;99487.03;4918796;28;98062;-63
2024/01/02 07:26:08;;;;;;;;;;;;;;;10.99;51.79;99485.41;4932275;28;97841;-65
2024/01/02 07:28:35;;;;;;;;;;;;;;;11.00;51.46;99472.72;4917430;28;109043;-63
2024/01/02 07:31:01;;;;;;;;;;;;;;;10.98;51.80;99475.72;4918028;28;98387;-65
2024/01/02 07:33:28;;;;;;;;;;;;;;;10.99;51.57;99474.63;4951278;27;101109;-64
2024/01/02 07:35:54;;;;;;;;;;;;;;;10.98;51.44;99470.31;4917151;28;98094;-65
2024/01/02 07:38:21;;;;;;;;;;;;;;;10.98;51.70;99467.63;4917399;28;98222;-65
2024/01/02 07:40:47;;;;;;;;;;;;;;;10.99;51.61;99463.03;4915552;28;100314;-63
2024/01/02 07:43:14;;;;;;;;;;;;;;;10.99;51.58;99457.66;4914908;28;98457;-63
2024/01/02 07:45:40;;;;;;;;;;;;;;;10.99;51.55;99457.66;4919003;28;98130;-67
2024/01/02 07:48:06;;;;;;;;;;;;;;;10.99;51.53;99452.25;4915486;28;98315;-63
2024/01/02 07:50:32;;;;;;;;;;;;;;;10.99;51.55;99442.25;4934387;28;98143;-64
2024/01/02 07:52:58;;;;;;;;;;;;;;;11.00;51.54;99443.06;4931196;28;123724;-65
2024/01/02 07:55:24;;;;;;;;;;;;;;;11.00;51.45;99433.09;4912326;28;128113;-63
2024/01/02 07:57:50;;;;;;;;;;;;;;;11.01;51.37;99431.19;4917343;28;99856;-63
2024/01/02 08:00:17;;;;;;;;;;;;;;;11.02;51.65;99430.09;4934179;28;99356;-63
2024/01/02 08:02:43;;;;;;;;;;;;;;;11.02;51.74;99422.00;4919520;28;98456;-63
2024/01/02 08:05:09;;;;;;;;;;;;;;;11.03;51.33;99415.50;4916952;28;98692;-65
2024/01/02 08:07:35;;;;;;;;;;;;;;;11.03;51.45;99416.31;4917092;28;99353;-65
2024/01/02 08:10:01;;;;;;;;;;;;;;;11.05;51.20;99422.22;4925345;28;105813;-65
2024/01/02 08:12:27;;;;;;;;;;;;;;;11.05;51.43;99406.03;4948271;28;99639;-63
2024/01/02 08:14:53;;;;;;;;;;;;;;;11.04;51.42;99395.53;4919923;28;99922;-65
2024/01/02 08:17:23;;;;;;;;;;;;;;;11.06;51.41;99398.75;4916203;28;99752;-65
2024/01/02 08:19:54;;;;;;;;;;;;;;;11.07;51.55;99397.63;4929985;28;99081;-65
2024/01/02 08:22:20;;;;;;;;;;;;;;;11.07;51.42;99395.75;4916290;28;99028;-65
2024/01/02 08:24:46;;;;;;;;;;;;;;;11.10;51.62;99388.97;4914694;28;107412;-63
2024/01/02 08:27:13;;;;;;;;;;;;;;;11.11;51.59;99387.06;4915988;28;97898;-63
2024/01/02 08:29:38;;;;;;;;;;;;;;;11.10;51.54;99380.88;4932733;28;99734;-63
2024/01/02 08:32:05;;;;;;;;;;;;;;;11.11;51.41;99378.97;4914993;28;98367;-65
2024/01/02 08:34:31;;;;;;;;;;;;;;;11.10;51.44;99375.47;4932967;28;99378;-65
2024/01/02 08:36:57;;;;;;;;;;;;;;;11.13;51.45;99377.59;4947642;28;99610;-65
2024/01/02 08:39:23;;;;;;;;;;;;;;;11.13;51.73;99368.69;4932846;28;105238;-65
2024/01/02 08:41:49;;;;;;;;;;;;;;;11.14;51.17;99367.59;4932707;28;97974;-65
2024/01/02 08:44:15;;;;;;;;;;;;;;;11.15;51.39;99361.91;4947158;28;123496;-65
2024/01/02 08:46:41;;;;;;;;;;;;;;;11.16;51.43;99360.81;4932543;28;117029;-64
2024/01/02 08:49:08;;;;;;;;;;;;;;;11.18;51.40;99357.81;4935719;28;124540;-63
2024/01/02 08:51:34;;;;;;;;;;;;;;;11.19;51.39;99359.41;4939853;28;99484;-63
2024/01/02 08:54:00;;;;;;;;;;;;;;;11.20;51.42;99363.69;4919466;28;98056;-64
2024/01/02 08:56:26;;;;;;;;;;;;;;;11.19;51.39;99362.09;4936392;28;98616;-63
2024/01/02 08:58:52;;;;;;;;;;;;;;;11.20;51.44;99355.59;4929004;28;98298;-63
2024/01/02 09:01:18;;;;;;;;;;;;;;;11.22;51.41;99350.72;4932811;28;98183;-63
2024/01/02 09:03:44;;;;;;;;;;;;;;;11.22;51.50;99356.91;4921494;28;98080;-65
2024/01/02 09:06:10;;;;;;;;;;;;;;;11.23;51.66;99352.31;4932878;28;98202;-64
2024/01/02 09:08:36;;;;;;;;;;;;;;;11.24;51.40;99351.25;4919979;28;99979;-63
2024/01/02 09:11:03;;;;;;;;;;;;;;;11.25;51.43;99342.03;4921459;28;99652;-63
2024/01/02 09:13:28;;;;;;;;;;;;;;;11.25;51.53;99348.22;4931835;28;113118;-65
2024/01/02 09:15:55;;;;;;;;;;;;;;;11.27;51.43;99353.31;4918731;28;116806;-63
2024/01/02 09:18:21;;;;;;;;;;;;;;;11.28;51.34;99341.44;4920632;28;98187;-65
2024/01/02 09:20:47;;;;;;;;;;;;;;;11.30;51.50;99344.63;4918963;28;100151;-63
2024/01/02 09:23:13;;;;;;;;;;;;;;;11.30;51.15;99329.25;4949673;28;98653;-65
2024/01/02 09:25:40;;;;;;;;;;;;;;;11.33;51.43;99316.28;4933862;28;98204;-64
2024/01/02 09:28:06;;;;;;;;;;;;;;;11.32;51.43;99307.38;4916607;28;98326;-65
2024/01/02 09:30:32;;;;;;;;;;;;;;;11.35;51.38;99312.16;4936169;28;101820;-65
2024/01/02 09:32:58;;;;;;;;;;;;;;;11.37;51.30;99296.47;4938218;28;98120;-63
2024/01/02 09:35:24;;;;;;;;;;;;;;;11.41;51.27;99288.59;4918209;28;98379;-63
2024/01/02 09:37:51;;;;;;;;;;;;;;;11.45;51.49;99297.69;4911580;28;98501;-63
2024/01/02 09:40:40;;;;;;;;;;;;;;;11.48;51.40;99289.78;4932758;28;98711;-65
2024/01/02 09:43:16;;;;;;;;;;;;;;;11.49;51.11;99279.78;4921028;28;110442;-63
2024/01/02 09:45:57;;;;;;;;;;;;;;;11.55;51.29;99273.16;4922421;28;98298;-65
2024/01/02 09:48:41;;;;;;;;;;;;;;;11.61;51.31;99260.38;4931999;28;98710;-63
2024/01/02 09:51:46;;;;;;;;;;;;;;;11.65;51.47;99254.06;4950459;28;109630;-65
2024/01/02 09:54:15;;;;;;;;;;;;;;;11.71;51.06;99246.63;4935539;28;98390;-65
2024/01/02 09:56:53;;;;;;;;;;;;;;;11.75;51.19;99242.22;4951928;28;98320;-66
2024/01/02 09:59:34;;;;;;;;;;;;;;;11.86;51.27;99240.13;4933443;28;99250;-65
2024/01/02 10:02:26;;;;;;;;;;;;;;;11.99;51.07;99233.91;4933810;28;119520;-64
2024/01/02 10:05:08;;;;;;;;;;;;;;;12.15;51.11;99216.22;4932456;28;99467;-65
2024/01/02 10:07:59;;;;;;;;;;;;;;;12.34;51.01;99218.75;4932136;28;98246;-65
2024/01/02 10:10:25;;;;;;;;;;;;;;;12.53;51.08;99210.41;4947692;28;99244;-63
2024/01/02 10:13:16;;;;;;;;;;;;;;;12.62;50.80;99202.34;4949555;27;98248;-65
2024/01/02 10:16:04;;;;;;;;;;;;;;;12.67;51.09;99194.88;4948786;28;98158;-64
2024/01/02 10:18:51;;;;;;;;;;;;;;;12.75;50.79;99180.59;4950414;28;98995;-64
2024/01/02 10:21:28;;;;;;;;;;;;;;;12.84;51.04;99177.13;4949716;28;98288;-63
2024/01/02 10:24:12;;;;;;;;;;;;;;;12.87;50.85;99176.53;4933002;28;98353;-63
2024/01/02 10:26:39;;;;;;;;;;;;;;;12.87;50.68;99160.28;4951680;27;98100;-64
2024/01/02 10:29:06;;;;;;;;;;;;;;;12.83;51.08;99165.53;4054751;28;10000398;-63
2024/01/02 10:32:08;;;;;;;;;;;;;;;12.77;51.35;99159.47;4916396;28;110679;-65
2024/01/02 10:34:41;;;;;;;;;;;;;;;12.72;51.34;99148.78;4933693;28;98658;-64
2024/01/02 10:37:07;;;;;;;;;;;;;;;12.71;51.32;99141.78;4931970;28;99519;-63
2024/01/02 10:40:14;;;;;;;;;;;;;;;12.72;51.20;99137.97;4920054;28;98342;-65
2024/01/02 10:43:05;;;;;;;;;;;;;;;12.73;51.38;99138.75;4909761;28;98590;-65
2024/01/02 10:45:37;;;;;;;;;;;;;;;12.71;51.41;99139.09;4944364;28;100205;-63
2024/01/02 10:48:44;;;;;;;;;;;;;;;12.69;51.49;99127.81;4949814;27;98251;-65
2024/01/02 10:51:13;;;;;;;;;;;;;;;12.64;51.44;99119.81;4911515;28;98229;-63
2024/01/02 10:53:54;;;;;;;;;;;;;;;12.63;51.26;99103.91;4917994;28;99929;-63
2024/01/02 10:56:28;;;;;;;;;;;;;;;12.61;51.18;99098.81;4931735;28;98513;-65
2024/01/02 10:59:22;;;;;;;;;;;;;;;12.61;51.64;99087.19;4948135;28;108975;-65
2024/01/02 11:01:49;;;;;;;;;;;;;;;12.64;51.47;99086.59;4964134;27;98177;-64
2024/01/02 11:04:21;;;;;;;;;;;;;;;12.65;51.48;99080.84;4914422;28;98481;-65
2024/01/02 11:06:56;;;;;;;;;;;;;;;12.67;51.20;99069.75;4934155;28;98304;-65
2024/01/02 11:09:28;;;;;;;;;;;;;;;12.68;51.05;99077.53;4914024;28;98339;-65
2024/01/02 11:11:54;;;;;;;;;;;;;;;12.68;51.14;99074.03;4931195;28;114045;-65
2024/01/02 11:14:21;;;;;;;;;;;;;;;12.68;51.18;99058.59;4929246;28;112170;-65
2024/01/02 11:16:47;;;;;;;;;;;;;;;12.68;51.11;99049.69;4916776;28;99777;-64
2024/01/02 11:19:15;;;;;;;;;;;;;;;12.67;51.41;99046.19;4918153;28;98241;-63
2024/01/02 11:21:41;;;;;;;;;;;;;;;12.69;51.28;99043.16;4946818;28;115748;-64
2024/01/02 11:24:08;;;;;;;;;;;;;;;12.66;51.47;99035.72;4947499;28;112372;-65
2024/01/02 11:26:40;;;;;;;;;;;;;;;12.61;51.29;99036.63;4930052;28;99138;-63
2024/01/02 11:29:18;;;;;;;;;;;;;;;12.59;51.50;99032.66;4933054;28;99864;-66
2024/01/02 11:31:48;;;;;;;;;;;;;;;12.57;51.70;99018.66;4917170;28;107062;-64
2024/01/02 11:34:18;;;;;;;;;;;;;;;12.56;51.46;99008.97;4933827;28;98527;-64
2024/01/02 11:36:57;;;;;;;;;;;;;;;12.55;51.57;99005.47;4952952;28;99529;-63
2024/01/02 11:39:56;;;;;;;;;;;;;;;12.55;51.55;99000.06;4950382;28;113374;-65
2024/01/02 11:42:37;;;;;;;;;;;;;;;12.55;51.34;98996.56;4932905;28;99571;-63
2024/01/02 11:45:11;;;;;;;;;;;;;;;12.55;51.41;98989.25;4944761;28;98138;-63
2024/01/02 11:47:45;;;;;;;;;;;;;;;12.53;51.29;98981.44;4930868;28;98483;-65
2024/01/02 11:50:13;;;;;;;;;;;;;;;12.55;51.32;98980.34;4917129;28;98063;-65
2024/01/02 11:52:58;;;;;;;;;;;;;;;12.56;51.32;98973.84;4930998;28;98650;-63
2024/01/02 11:55:45;;;;;;;;;;;;;;;12.56;51.31;98968.44;4914297;28;98356;-65
2024/01/02 11:58:24;;;;;;;;;;;;;;;12.54;51.55;98963.34;4933695;28;97941;-66
2024/01/02 12:01:16;;;;;;;;;;;;;;;12.53;51.39;98962.53;4933804;28;98664;-65
2024/01/02 12:04:01;;;;;;;;;;;;;;;12.52;51.46;98958.25;4919180;28;99805;-65
2024/01/02 12:06:50;;;;;;;;;;;;;;;12.50;51.59;98952.38;4948163;28;98846;-64
2024/01/02 12:09:17;;;;;;;;;;;;;;;12.50;51.73;98929.97;4917444;28;98785;-65
2024/01/02 12:12:05;;;;;;;;;;;;;;;12.51;51.60;98926.13;4914928;28;98200;-65
2024/01/02 12:14:47;;;;;;;;;;;;;;;12.53;51.30;98926.59;4933389;28;99242;-63
2024/01/02 12:17:16;;;;;;;;;;;;;;;12.56;51.35;98922.47;4935821;28;98001;-64
2024/01/02 12:19:45;;;;;;;;;;;;;;;12.58;51.42;98925.69;4914915;28;98129;-66
2024/01/02 12:22:10;;;;;;;;;;;;;;;12.57;51.27;98918.66;4933394;28;98480;-63
2024/01/02 12:24:36;;;;;;;;;;;;;;;12.58;51.45;98910.25;4932048;28;100275;-65
2024/01/02 12:27:03;;;;;;;;;;;;;;;12.59;51.42;98909.13;4919585;28;107582;-63
2024/01/02 12:29:57;;;;;;;;;;;;;;;12.61;51.40;98908.78;4948842;28;98513;-64
2024/01/02 12:32:38;;;;;;;;;;;;;;;12.61;51.55;98898.78;4932227;28;98475;-63
2024/01/02 12:35:08;;;;;;;;;;;;;;;12.62;51.35;98894.19;4951685;28;98898;-64
2024/01/02 12:37:41;;;;;;;;;;;;;;;12.62;51.43;98886.09;4935489;28;99387;-63
2024/01/02 12:40:10;;;;;;;;;;;;;;;12.60;51.19;98889.09;4950416;28;99345;-64
2024/01/02 12:42:42;;;;;;;;;;;;;;;12.60;51.43;98888.28;4934868;28;98442;-65
2024/01/02 12:45:12;;;;;;;;;;;;;;;12.58;51.53;98883.22;4934545;28;98382;-63
2024/01/02 12:47:42;;;;;;;;;;;;;;;12.55;51.48;98881.16;4936679;28;98121;-65
2024/01/02 12:50:08;;;;;;;;;;;;;;;12.51;51.64;98880.97;4934664;28;98186;-64
2024/01/02 12:53:00;;;;;;;;;;;;;;;12.48;51.31;98865.41;4932706;28;128111;-65